Latest Weather Observations for Mortlake

IDV60801

Issued at 5:12 pm EDT Tuesday 19 January 2021 (issued every 10 minutes, with the page automatically refreshed every 10 minutes)

About weather observations | Map of weather stations | Latest weather observations for VIC | Other Formats
Station Details ID: 090176 Name: MORTLAKE RACECOURSE Lat: -38.07 Lon: 142.77 Height: 130.0 m
Data from the previous 72 hours. | See also: Recent months at Mortlake
Date/Time
EDT
Temp
°C
App
Temp
°C
Dew
Point
°C
Rel
Hum
%
Delta-T
°C
Wind Press
QNH
hPa
Press
MSL
hPa
Rain since
9am
mm
Dir  Spd
km/h
Gust
km/h
Spd
kts
Gust
kts
19/05:00pm 18.2 13.6 6.4 46 5.9 SSE 20 30 11 16 1023.7 1023.4 0.0
19/04:30pm 18.4 13.9 6.9 47 5.8 SSE 20 33 11 18 1023.7 1023.4 0.0
19/04:00pm 18.7 14.4 7.8 49 5.6 SSE 20 33 11 18 1023.9 1023.6 0.0
19/03:30pm 18.3 13.9 7.4 49 5.5 SSE 20 32 11 17 1024.1 1023.8 0.0
19/03:00pm 18.8 14.7 7.9 49 5.6 SSE 19 28 10 15 1024.2 1023.9 0.0
19/02:30pm 18.6 14.6 8.3 51 5.3 SSE 19 33 10 18 1024.2 1023.9 0.0
19/02:00pm 18.6 14.3 7.7 49 5.6 SSE 20 35 11 19 1024.4 1024.1 0.0
19/01:30pm 18.9 15.2 8.0 49 5.6 SE 17 32 9 17 1024.7 1024.4 0.0
19/01:00pm 17.7 13.4 6.9 49 5.4 SSE 19 30 10 16 1024.9 1024.6 0.0
19/12:30pm 17.7 13.4 6.9 49 5.4 SE 19 32 10 17 1024.9 1024.6 0.0
19/12:00pm 17.2 12.8 6.7 50 5.2 SE 19 26 10 14 1025.3 1025.0 0.0
19/11:30am 16.5 11.9 6.6 52 4.9 SSE 20 28 11 15 1025.3 1025.0 0.0
19/11:00am 15.6 11.5 6.3 54 4.5 SSE 17 26 9 14 1025.5 1025.2 0.0
19/10:30am 15.3 11.0 7.1 58 4.1 S 19 30 10 16 1025.7 1025.4 0.0
19/10:00am 14.5 10.6 7.3 62 3.5 S 17 24 9 13 1025.5 1025.2 0.0
19/09:30am 14.4 10.3 7.7 64 3.3 SE 19 28 10 15 1025.3 1025.0 0.0
19/09:00am 13.6 9.9 8.0 69 2.8 S 17 24 9 13 1025.0 1024.7 0.6
19/08:30am 13.1 10.2 8.2 72 2.4 S 13 20 7 11 1024.6 1024.3 0.6
19/08:00am 12.2 10.2 8.7 79 1.7 SSW 9 13 5 7 1024.1 1023.8 0.6
19/07:30am 10.6 9.2 9.7 94 0.5 SSW 7 13 4 7 1023.7 1023.4 0.6
19/07:00am 9.5 7.8 8.4 93 0.5 S 7 9 4 5 1023.4 1023.1 0.6
19/06:30am 11.1 8.9 9.4 89 0.9 SSE 11 13 6 7 1023.0 1022.7 0.6
19/06:00am 11.6 9.5 9.9 89 0.9 SSE 11 13 6 7 1022.6 1022.2 0.6
19/05:30am 11.7 10.0 9.8 88 1.0 S 9 13 5 7 1022.2 1021.8 0.6
19/05:00am 11.7 10.5 10.3 91 0.7 S 7 9 4 5 1021.7 1021.4 0.6
19/04:30am 11.9 10.7 10.3 90 0.8 S 7 9 4 5 1021.5 1021.2 0.6
19/04:00am 12.0 10.9 10.7 92 0.7 SSW 7 9 4 5 1021.3 1021.0 0.6
19/03:30am 12.1 10.5 10.2 88 1.0 S 9 15 5 8 1021.0 1020.7 0.6
19/03:00am 12.2 10.5 11.1 93 0.6 SSW 11 20 6 11 1021.1 1020.8 0.6
19/02:30am 12.1 10.9 11.6 97 0.3 S 9 13 5 7 1021.0 1020.7 0.6
19/02:00am 12.5 10.8 12.5 100 0.0 SSW 13 17 7 9 1020.9 1020.6 0.6
19/01:30am 12.6 11.7 12.6 100 0.0 SSW 9 11 5 6 1021.0 1020.7 0.6
19/01:00am 13.0 12.6 13.0 100 0.0 SSW 7 11 4 6 1021.1 1020.8 0.6
19/12:30am 13.1 12.4 13.1 100 0.0 SSW 9 13 5 7 1021.0 1020.7 0.6
19/12:00am 13.0 11.9 13.0 100 0.0 SSW 11 17 6 9 1020.9 1020.6 0.6
 
Date/Time
EDT
Temp
°C
App
Temp
°C
Dew
Point
°C
Rel
Hum
%
Delta-T
°C
Wind Press
QNH
hPa
Press
MSL
hPa
Rain since
9am
mm
Dir  Spd
km/h
Gust
km/h
Spd
kts
Gust
kts
18/11:30pm 13.2 12.9 13.2 100 0.0 SSW 7 11 4 6 1020.9 1020.6 0.6
18/11:00pm 13.1 12.0 13.1 100 0.0 SW 11 15 6 8 1020.8 1020.5 0.2
18/10:30pm 12.7 11.5 12.7 100 0.0 SW 11 15 6 8 1020.6 1020.3 0.2
18/10:00pm 13.0 11.1 13.0 100 0.0 SSW 15 22 8 12 1020.6 1020.3 0.2
18/09:30pm 13.2 12.1 13.2 100 0.0 SW 11 15 6 8 1020.4 1020.1 0.2
18/09:00pm 13.2 11.7 13.2 100 0.0 WSW 13 19 7 10 1020.1 1019.8 0.2
18/08:30pm 13.3 11.9 13.3 100 0.0 WSW 13 22 7 12 1020.0 1019.7 0.2
18/08:00pm 13.6 9.9 12.8 95 0.4 SSW 24 35 13 19 1019.8 1019.5 0.2
18/07:30pm 14.8 9.3 10.6 76 2.2 SW 30 41 16 22 1019.3 1019.0 0.2
18/07:00pm 15.3 10.7 10.9 75 2.3 SW 26 37 14 20 1018.9 1018.6 0.2
18/06:30pm 16.3 11.5 10.4 68 3.1 SW 26 37 14 20 1018.6 1018.3 0.2
18/06:00pm 16.0 10.6 11.0 72 2.7 SW 30 41 16 22 1018.5 1018.2 0.2
18/05:30pm 16.5 12.4 11.4 72 2.8 SW 24 35 13 19 1018.7 1018.4 0.2
18/05:00pm 16.3 11.4 11.2 72 2.8 SW 28 35 15 19 1018.9 1018.6 0.2
18/04:34pm 17.1 12.0 10.7 66 3.4 SW 28 46 15 25 1018.9 1018.6 0.2
18/04:30pm 17.1 12.1 10.9 67 3.3 SW 28 39 15 21 1018.9 1018.6 0.2
18/04:00pm 17.1 11.6 10.7 66 3.4 SW 30 37 16 20 1018.9 1018.6 0.2
18/03:30pm 16.8 11.8 12.3 75 2.5 SW 30 43 16 23 1018.9 1018.6 0.2
18/03:00pm 17.7 13.5 12.4 71 2.9 SW 26 39 14 21 1018.8 1018.5 0.2
18/02:30pm 17.6 14.0 11.9 69 3.1 WSW 22 35 12 19 1018.9 1018.6 0.2
18/02:00pm 16.7 12.5 12.5 76 2.3 SW 26 37 14 20 1019.1 1018.8 0.2
18/01:30pm 17.5 12.5 11.1 66 3.5 SW 28 41 15 22 1019.0 1018.7 0.2
18/01:00pm 17.0 12.8 11.1 68 3.2 WSW 24 41 13 22 1019.3 1019.0 0.2
18/12:30pm 16.5 12.8 12.8 79 2.1 SW 24 35 13 19 1019.2 1018.9 0.2
18/12:00pm 17.1 13.3 12.4 74 2.6 WSW 24 41 13 22 1019.1 1018.8 0.2
18/11:30am 17.5 14.2 14.0 80 2.0 WSW 24 33 13 18 1018.9 1018.6 0.2
18/11:00am 15.6 12.9 13.6 88 1.1 WSW 20 35 11 19 1019.1 1018.8 0.2
18/10:30am 15.5 12.5 13.7 89 1.0 WSW 22 33 12 18 1019.2 1018.9 0.2
18/10:00am 14.8 12.0 14.2 96 0.3 WSW 22 32 12 17 1019.2 1018.9 0.0
18/09:30am 14.0 11.1 14.0 100 0.0 SW 22 32 12 17 1019.2 1018.9 0.0
18/09:00am 13.9 11.9 13.9 100 0.0 WSW 17 26 9 14 1019.1 1018.8 0.2
18/08:30am 13.6 11.9 13.6 100 0.0 WSW 15 24 8 13 1018.8 1018.5 0.2
18/08:00am 13.3 11.1 13.3 100 0.0 WSW 17 22 9 12 1018.7 1018.4 0.2
18/07:30am 13.1 11.2 13.1 100 0.0 WSW 15 24 8 13 1018.5 1018.2 0.2
18/07:00am 13.1 12.4 13.1 100 0.0 WSW 9 17 5 9 1018.2 1017.9 0.2
18/06:30am 12.9 11.7 12.9 100 0.0 WSW 11 15 6 8 1018.1 1017.8 0.2
18/06:00am 12.8 12.0 12.8 100 0.0 W 9 19 5 10 1018.1 1017.8 0.0
18/05:30am 12.7 11.5 12.7 100 0.0 WNW 11 15 6 8 1017.9 1017.6 0.0
18/05:00am 12.7 11.5 12.7 100 0.0 WNW 11 15 6 8 1017.7 1017.4 0.0
18/04:30am 12.7 11.8 12.7 100 0.0 W 9 17 5 9 1017.8 1017.5 0.0
18/04:00am 12.7 11.8 12.7 100 0.0 W 9 15 5 8 1017.8 1017.5 0.0
18/03:30am 12.7 11.8 12.7 100 0.0 W 9 15 5 8 1017.8 1017.5 0.0
18/03:00am 12.6 11.3 12.6 100 0.0 WNW 11 13 6 7 1018.1 1017.8 0.0
18/02:30am 12.6 11.7 12.6 100 0.0 W 9 13 5 7 1018.5 1018.2 0.0
18/02:00am 13.1 12.3 12.8 98 0.2 W 9 13 5 7 1018.7 1018.4 0.0
18/01:30am 13.2 12.3 12.6 96 0.3 W 9 17 5 9 1018.9 1018.6 0.0
18/01:00am 13.4 11.9 11.8 90 0.9 W 11 17 6 9 1019.2 1018.9 0.0
18/12:30am 13.6 12.0 11.5 87 1.1 WSW 11 20 6 11 1019.4 1019.1 0.0
18/12:00am 13.6 11.9 11.1 85 1.3 WSW 11 19 6 10 1019.7 1019.4 0.0
 
Date/Time
EDT
Temp
°C
App
Temp
°C
Dew
Point
°C
Rel
Hum
%
Delta-T
°C
Wind Press
QNH
hPa
Press
MSL
hPa
Rain since
9am
mm
Dir  Spd
km/h
Gust
km/h
Spd
kts
Gust
kts
17/11:30pm 13.6 11.8 11.0 84 1.4 WSW 11 20 6 11 1019.8 1019.5 0.0
17/11:00pm 13.5 11.6 10.5 82 1.6 WSW 11 19 6 10 1019.8 1019.5 0.0
17/10:30pm 13.2 11.3 10.4 83 1.5 WSW 11 17 6 9 1020.0 1019.7 0.0
17/10:00pm 12.5 10.6 10.4 87 1.1 WSW 11 17 6 9 1020.0 1019.7 0.0
17/09:30pm 11.8 10.4 9.7 87 1.1 WSW 7 11 4 6 1019.9 1019.6 0.0
17/09:00pm 12.8 9.5 9.4 80 1.7 SW 17 20 9 11 1019.8 1019.5 0.0
17/08:30pm 13.8 10.5 9.5 75 2.2 SSW 17 24 9 13 1019.7 1019.4 0.0
17/08:00pm 14.9 11.0 9.3 69 2.9 SW 20 26 11 14 1019.3 1019.0 0.0
17/07:30pm 15.8 11.9 9.5 66 3.3 SSW 20 30 11 16 1019.1 1018.8 0.0
17/07:00pm 16.0 11.6 9.0 63 3.6 SW 22 32 12 17 1018.8 1018.5 0.0
17/06:30pm 16.4 10.8 8.6 60 4.0 SSW 28 37 15 20 1018.9 1018.6 0.0
17/06:00pm 17.3 12.3 9.5 60 4.1 SSW 26 35 14 19 1018.8 1018.5 0.0
17/05:30pm 17.7 12.3 9.6 59 4.3 SSW 28 39 15 21 1018.8 1018.5 0.0
17/05:00pm 18.5 13.6 9.8 57 4.6 SW 26 35 14 19 1018.9 1018.6 0.0
17/04:30pm 18.7 14.9 9.8 56 4.8 SW 20 32 11 17 1019.0 1018.7 0.0
17/04:00pm 18.5 13.7 9.0 54 5.0 SW 24 35 13 19 1019.3 1019.0 0.0
17/03:30pm 18.1 13.6 8.7 54 4.9 SW 22 33 12 18 1019.6 1019.3 0.0
17/03:00pm 18.7 14.4 9.5 55 4.9 SSW 22 33 12 18 1019.6 1019.3 0.0
17/02:30pm 18.7 14.7 9.2 54 5.0 SW 20 32 11 17 1019.7 1019.4 0.0
17/02:00pm 18.1 13.6 8.7 54 4.9 SW 22 32 12 17 1019.9 1019.6 0.0
17/01:30pm 18.4 14.4 9.2 55 4.8 SW 20 32 11 17 1020.1 1019.8 0.0
17/01:00pm 17.8 13.9 8.6 55 4.8 SW 19 33 10 18 1020.2 1019.9 0.0
17/12:30pm 17.3 14.0 8.2 55 4.7 SW 15 22 8 12 1020.2 1019.9 0.0
17/12:00pm 17.7 14.5 8.6 55 4.7 WSW 15 30 8 16 1020.0 1019.7 0.0
17/11:30am 17.1 13.7 7.7 54 4.8 SW 15 24 8 13 1020.3 1020.0 0.0
17/11:00am 16.5 12.9 8.2 58 4.2 SW 17 24 9 13 1020.2 1019.9 0.0
17/10:30am 14.9 11.3 8.2 64 3.4 SW 17 22 9 12 1020.3 1020.0 0.0
17/10:00am 14.6 11.4 10.0 74 2.4 SSW 17 24 9 13 1020.4 1020.1 0.0
17/09:30am 13.4 10.8 9.5 77 2.0 WSW 13 19 7 10 1020.4 1020.1 0.0
17/09:00am 13.9 11.9 10.3 79 1.9 WSW 11 19 6 10 1020.1 1019.8 0.8
17/08:30am 12.2 11.6 12.2 100 0.0 W 7 13 4 7 1019.5 1019.2 0.8
17/08:00am 10.2 9.2 10.2 100 0.0 WNW 6 11 3 6 1019.2 1018.9 0.8
17/07:30am 8.5 7.4 8.5 100 0.0 NW 4 6 2 3 1019.0 1018.7 0.8
17/07:00am 6.9 5.0 6.9 100 0.0 NW 6 6 3 3 1018.6 1018.3 0.8
17/06:30am 7.2 5.2 7.2 100 0.0 WNW 7 9 4 5 1018.3 1018.0 0.8
17/06:00am 8.0 6.8 8.0 100 0.0 WNW 4 6 2 3 1018.2 1017.9 0.8
17/05:30am 7.8 6.2 7.8 100 0.0 WNW 6 9 3 5 1018.0 1017.7 0.8
17/05:00am 8.5 7.0 8.5 100 0.0 W 6 7 3 4 1017.9 1017.6 0.8
17/04:30am 9.1 7.8 9.1 100 0.0 W 6 7 3 4 1017.8 1017.5 0.8
17/04:00am 7.8 6.2 7.8 100 0.0 WNW 6 7 3 4 1017.8 1017.5 0.8
17/03:30am 6.8 4.9 6.8 100 0.0 W 6 7 3 4 1017.8 1017.5 0.8
17/03:00am 7.5 6.2 7.5 100 0.0 W 4 4 2 2 1017.8 1017.5 0.8
17/02:30am 8.9 7.5 8.9 100 0.0 W 6 7 3 4 1017.9 1017.6 0.8
17/02:00am 9.5 8.3 9.5 100 0.0 W 6 6 3 3 1017.9 1017.6 0.8
17/01:30am 10.7 9.7 10.4 98 0.2 W 6 9 3 5 1017.9 1017.6 0.8
17/01:00am 11.2 10.3 10.7 97 0.3 WSW 6 9 3 5 1017.9 1017.6 0.8
17/12:30am 11.2 10.2 11.0 99 0.1 WSW 7 13 4 7 1017.8 1017.5 0.8
17/12:00am 11.0 10.0 11.0 100 0.0 WSW 7 9 4 5 1017.5 1017.2 0.8
 
Date/Time
EDT
Temp
°C
App
Temp
°C
Dew
Point
°C
Rel
Hum
%
Delta-T
°C
Wind Press
QNH
hPa
Press
MSL
hPa
Rain since
9am
mm
Dir  Spd
km/h
Gust
km/h
Spd
kts
Gust
kts
16/11:30pm 10.7 9.6 10.7 100 0.0 W 7 9 4 5 1017.6 1017.3 0.8
16/11:00pm 11.2 10.2 10.9 98 0.2 WSW 7 13 4 7 1017.6 1017.3 0.8
16/10:30pm 11.3 9.9 11.0 98 0.2 W 9 11 5 6 1017.7 1017.4 0.8
16/10:00pm 11.0 10.0 10.2 95 0.4 W 6 7 3 4 1017.6 1017.3 0.8
16/09:30pm 11.4 9.9 10.5 94 0.5 WSW 9 13 5 7 1017.3 1017.0 0.8
16/09:00pm 12.3 9.3 10.5 89 0.9 SW 17 22 9 12 1017.2 1016.9 0.8
16/08:30pm 13.4 11.1 12.9 97 0.3 SW 17 22 9 12 1016.8 1016.5 0.8
16/08:00pm 13.3 9.8 13.3 100 0.0 SW 24 35 13 19 1016.6 1016.3 0.8
16/07:30pm 14.0 11.4 13.8 99 0.1 SW 20 28 11 15 1016.3 1016.0 0.4
16/07:00pm 14.4 12.2 14.4 100 0.0 SW 19 28 10 15 1016.0 1015.6 0.4
16/06:30pm 13.7 11.1 13.7 100 0.0 SW 20 32 11 17 1015.9 1015.5 0.4
16/06:00pm 14.5 11.4 14.5 100 0.0 SW 24 37 13 20 1015.8 1015.4 0.4
16/05:30pm 14.5 9.7 14.5 100 0.0 SW 33 50 18 27 1015.8 1015.4 0.2

Other formats

Comma delimited format used in spreadsheet applications
http://www.bom.gov.au/fwo/IDV60801/IDV60801.94840.axf

JavaScript Object Notation format (JSON) in row-major order
http://www.bom.gov.au/fwo/IDV60801/IDV60801.94840.json

Data quality

Most of these data are generated automatically and are frequently updated. Quality checks on data are not normally performed. It is possible for incorrect values to appear. Refer to information at About Latest Weather Observations and please check the disclaimer before using these data.